Selsey, United Kingdom
Current Conditions -  °F | °C
As of 2:20 PM on Sunday 25 Jan 2015 (Local Time) from EGKA Reporting Station
Broken Clouds Broken Clouds  
Wind Chill:   Ceiling: 4000
Heat Index:   Visibility: 6mi
Dew Point:   Wind: 10mph
Humidity: 76%   Direction: 240°WSW
Pressure: 30.42"   Gusts: NA
Location:  50.74°N, 0.79°W
Report Text: EGKA 251420Z 24009KT 9999 BKN040 08/04 Q1030
Loading
Personal Weather Stations






























Interactive Weather Map New forecast layout! Learn more

10-Day Weather Forecast

Advertisements
Track Severe Weather on mobile